Time;durP1;ratioP1;P1;durP2;ratioP2;P2;SDS_P1;SDS_P2;PMS_P1;PMS_P2;Temp;Humidity;BMP_temperature;BMP_pressure;BME280_temperature;BME280_humidity;BME280_pressure;Samples;Min_cycle;Max_cycle;Signal;HPM_P1;HPM_P2
2022/01/15 00:01:10;;;;;;;3.78;1.88;;;;;;;1.14;99.61;95193.75;5062029;28;20048;-55
2022/01/15 00:03:37;;;;;;;6.75;3.65;;;;;;;1.07;99.40;95190.25;5062683;28;20044;-52
2022/01/15 00:06:04;;;;;;;7.38;2.58;;;;;;;1.04;99.67;95203.38;5064962;28;20060;-54
2022/01/15 00:08:31;;;;;;;5.75;4.32;;;;;;;1.03;100.00;95196.66;5064945;28;20433;-52
2022/01/15 00:10:58;;;;;;;6.97;3.28;;;;;;;0.97;100.00;95203.22;5065493;28;20048;-51
2022/01/15 00:13:29;;;;;;;6.70;4.57;;;;;;;0.87;100.00;95198.28;5063402;28;20068;-53
2022/01/15 00:16:09;;;;;;;10.57;4.05;;;;;;;0.84;100.00;95201.16;5063930;28;20040;-55
2022/01/15 00:19:05;;;;;;;12.88;4.15;;;;;;;0.76;100.00;95209.66;5065127;28;20072;-54
2022/01/15 00:21:26;;;;;;;10.75;3.20;;;;;;;0.77;100.00;95205.31;5069102;28;20472;-54
2022/01/15 00:23:53;;;;;;;8.70;4.75;;;;;;;0.70;100.00;95194.09;5067531;28;20036;-53
2022/01/15 00:26:20;;;;;;;13.07;5.15;;;;;;;0.70;100.00;95199.22;5069030;28;20043;-52
2022/01/15 00:28:47;;;;;;;11.82;4.93;;;;;;;0.57;100.00;95197.94;5063954;28;20147;-54
2022/01/15 00:31:14;;;;;;;9.80;4.57;;;;;;;0.64;100.00;95207.56;5061865;28;20048;-51
2022/01/15 00:33:41;;;;;;;12.13;4.45;;;;;;;0.66;100.00;95214.13;5063605;28;20044;-50
2022/01/15 00:36:07;;;;;;;21.02;7.53;;;;;;;0.63;100.00;95216.22;5069410;28;20494;-53
2022/01/15 00:38:34;;;;;;;19.55;5.82;;;;;;;0.56;100.00;95206.59;5062286;28;20051;-52
2022/01/15 00:41:01;;;;;;;19.70;7.80;;;;;;;0.61;100.00;95208.69;5065421;28;20534;-51
2022/01/15 00:43:28;;;;;;;20.73;7.93;;;;;;;0.51;100.00;95211.41;5065950;28;20082;-53
2022/01/15 00:45:58;;;;;;;19.40;7.10;;;;;;;0.49;100.00;95208.22;5065381;28;20075;-50
2022/01/15 00:48:26;;;;;;;19.38;7.82;;;;;;;0.49;100.00;95210.75;5066867;28;20036;-50
2022/01/15 00:50:53;;;;;;;19.52;7.82;;;;;;;0.43;100.00;95211.38;5065367;28;20055;-55
2022/01/15 00:53:20;;;;;;;26.40;9.35;;;;;;;0.43;100.00;95216.50;5063483;28;20048;-53
2022/01/15 00:55:47;;;;;;;19.05;7.20;;;;;;;0.41;100.00;95213.31;5064253;28;20537;-52
2022/01/15 00:58:14;;;;;;;16.13;7.97;;;;;;;0.42;100.00;95222.63;5062989;28;20039;-55
2022/01/15 01:00:41;;;;;;;18.80;8.00;;;;;;;0.41;100.00;95217.63;5070166;28;20036;-53
2022/01/15 01:03:08;;;;;;;32.63;10.35;;;;;;;0.41;100.00;95223.56;5065222;28;20403;-54
2022/01/15 01:05:34;;;;;;;23.35;6.95;;;;;;;0.37;100.00;95223.06;5068604;28;22060;-51
2022/01/15 01:08:01;;;;;;;21.38;7.80;;;;;;;0.36;100.00;95221.50;5066621;28;20047;-52
2022/01/15 01:23:43;;;;;;;10.70;5.90;;;;;;;0.33;100.00;95205.63;5072581;28;20068;-50
2022/01/15 01:26:23;;;;;;;10.63;6.53;;;;;;;0.36;100.00;95200.16;5063592;28;20387;-52
2022/01/15 01:28:59;;;;;;;8.20;3.80;;;;;;;0.45;100.00;95203.53;5063879;28;20500;-53
2022/01/15 01:31:36;;;;;;;13.50;6.30;;;;;;;0.46;100.00;95200.03;5064208;28;20064;-53
2022/01/15 01:34:09;;;;;;;14.57;6.30;;;;;;;0.45;100.00;95198.41;5069974;28;20036;-51
2022/01/15 01:37:02;;;;;;;11.52;5.68;;;;;;;0.41;100.00;95187.69;5062685;28;20127;-51
2022/01/15 01:39:36;;;;;;;15.18;6.45;;;;;;;0.45;100.00;95180.47;5062484;28;20048;-52
2022/01/15 01:42:31;;;;;;;13.15;5.28;;;;;;;0.53;100.00;95191.53;5066418;28;20492;-50
2022/01/15 01:45:05;;;;;;;16.27;7.45;;;;;;;0.64;100.00;95187.06;5073371;28;20064;-50
2022/01/15 01:47:50;;;;;;;16.52;7.03;;;;;;;0.62;100.00;95189.00;5062602;28;20041;-49
2022/01/15 01:50:17;;;;;;;16.70;8.60;;;;;;;0.57;100.00;95187.69;5062606;28;20053;-53
2022/01/15 01:52:46;;;;;;;10.20;5.55;;;;;;;0.61;100.00;95188.16;5067419;28;20039;-52
2022/01/15 01:55:14;;;;;;;15.15;6.63;;;;;;;0.59;100.00;95202.13;5063727;28;20058;-52
2022/01/15 01:57:42;;;;;;;21.73;7.68;;;;;;;0.61;100.00;95193.28;5062802;28;20032;-50
2022/01/15 02:00:12;;;;;;;15.00;5.22;;;;;;;0.61;100.00;95197.63;5064964;28;20438;-50
2022/01/15 02:02:48;;;;;;;13.35;6.38;;;;;;;0.65;100.00;95196.34;5062863;28;20044;-50
2022/01/15 02:05:16;;;;;;;14.93;6.45;;;;;;;0.58;100.00;95183.38;5061617;28;20490;-51
2022/01/15 02:07:45;;;;;;;13.98;6.20;;;;;;;0.68;100.00;95190.91;5068253;28;20119;-55
2022/01/15 02:10:14;;;;;;;14.10;5.25;;;;;;;0.67;100.00;95176.50;5069063;28;20045;-50
2022/01/15 02:12:42;;;;;;;17.15;7.07;;;;;;;0.65;100.00;95194.59;5064458;28;20051;-52
2022/01/15 02:15:15;;;;;;;20.63;7.55;;;;;;;0.65;100.00;95193.78;5062741;28;20048;-52
2022/01/15 02:17:43;;;;;;;22.90;6.45;;;;;;;0.63;100.00;95193.13;5062988;28;20044;-50
2022/01/15 02:20:33;;;;;;;13.68;5.50;;;;;;;0.63;100.00;95198.28;5067847;28;20041;-49
2022/01/15 02:25:56;;;;;;;7.78;4.43;;;;;;;0.80;100.00;95187.06;5061106;28;20064;-50
2022/01/15 02:28:29;;;;;;;16.10;5.38;;;;;;;0.80;100.00;95196.53;5062925;28;20045;-52
2022/01/15 02:31:04;;;;;;;12.48;6.35;;;;;;;0.78;100.00;95188.97;5062448;28;20037;-51
2022/01/15 02:33:31;;;;;;;;;;;;;;;0.77;100.00;95197.63;5064301;28;20040;-50
2022/01/15 02:35:58;;;;;;;9.00;4.20;;;;;;;0.72;100.00;95200.69;5063924;28;19931;-51
2022/01/15 02:38:26;;;;;;;7.88;4.75;;;;;;;0.74;100.00;95208.22;5062670;28;20119;-50
2022/01/15 02:40:53;;;;;;;8.50;5.45;;;;;;;0.66;100.00;95208.22;5062600;28;20053;-53
2022/01/15 02:43:27;;;;;;;6.47;4.18;;;;;;;0.65;100.00;95211.72;5065776;28;20040;-51
2022/01/15 02:45:56;;;;;;;11.73;6.65;;;;;;;0.62;100.00;95212.06;5065644;28;20494;-52
2022/01/15 02:48:25;;;;;;;13.48;6.05;;;;;;;0.59;100.00;95225.19;5062806;28;20079;-53
2022/01/15 02:50:53;;;;;;;12.02;5.65;;;;;;;0.55;100.00;95215.25;5068047;28;20075;-50
2022/01/15 02:53:20;;;;;;;8.73;4.65;;;;;;;0.52;100.00;95215.59;5066655;28;20040;-50
2022/01/15 02:55:50;;;;;;;8.90;4.28;;;;;;;0.42;100.00;95220.03;5066046;28;20044;-51
2022/01/15 02:58:20;;;;;;;8.57;3.75;;;;;;;0.41;100.00;95217.63;5064144;28;20051;-54
2022/01/15 03:00:47;;;;;;;11.38;6.00;;;;;;;0.39;100.00;95217.78;5066152;28;20064;-51
2022/01/15 03:03:14;;;;;;;9.95;4.55;;;;;;;0.37;100.00;95222.28;5070151;28;20502;-55
2022/01/15 03:05:41;;;;;;;10.82;5.45;;;;;;;0.31;100.00;95217.78;5066203;28;20131;-51
2022/01/15 03:08:09;;;;;;;7.90;3.78;;;;;;;0.34;100.00;95212.34;5065902;28;20634;-55
2022/01/15 03:10:36;;;;;;;13.13;4.80;;;;;;;0.39;100.00;95215.22;5066660;28;20466;-53
2022/01/15 03:13:11;;;;;;;7.18;3.80;;;;;;;0.47;100.00;95217.81;5065030;28;20494;-52
2022/01/15 03:15:38;;;;;;;;;;;;;;;0.44;100.00;95220.69;5065825;28;20041;-50
2022/01/15 03:18:06;;;;;;;9.77;4.40;;;;;;;0.38;100.00;95223.91;5065055;28;20381;-49
2022/01/15 03:20:33;;;;;;;9.57;4.18;;;;;;;0.41;100.00;95221.00;5075778;28;20048;-49
2022/01/15 03:23:01;;;;;;;11.35;6.20;;;;;;;0.39;100.00;95235.72;5067735;28;20436;-49
2022/01/15 03:25:28;;;;;;;10.27;5.70;;;;;;;0.33;100.00;95236.38;5065117;28;20055;-49
2022/01/15 03:27:55;;;;;;;8.05;4.35;;;;;;;0.31;100.00;95222.91;5069051;28;20032;-51
2022/01/15 03:30:22;;;;;;;14.68;6.25;;;;;;;0.37;100.00;95227.41;5072374;28;20048;-53
2022/01/15 03:32:49;;;;;;;9.32;3.72;;;;;;;0.37;100.00;95235.09;5065763;28;20052;-52
2022/01/15 03:35:17;;;;;;;11.73;3.88;;;;;;;0.23;100.00;95216.00;5066433;28;20044;-49
2022/01/15 03:37:45;;;;;;;8.93;5.05;;;;;;;0.33;100.00;95241.50;5065779;28;20501;-50
2022/01/15 03:40:15;;;;;;;9.52;4.80;;;;;;;0.32;100.00;95240.66;5065246;28;20501;-50
2022/01/15 03:42:44;;;;;;;12.20;6.45;;;;;;;0.31;100.00;95248.53;5064151;28;20102;-52
2022/01/15 03:45:13;;;;;;;11.07;5.88;;;;;;;0.32;100.00;95245.00;5065917;28;20098;-54
2022/01/15 03:47:41;;;;;;;7.80;4.38;;;;;;;0.31;100.00;95253.66;5064939;28;20037;-54
2022/01/15 03:50:09;;;;;;;11.57;5.13;;;;;;;0.33;100.00;95252.53;5071053;28;20094;-53
2022/01/15 03:52:36;;;;;;;9.10;5.10;;;;;;;0.28;100.00;95248.84;5065168;28;20490;-54
2022/01/15 03:55:06;;;;;;;12.95;6.63;;;;;;;0.29;100.00;95250.44;5064839;28;20045;-52
2022/01/15 03:57:33;;;;;;;14.13;5.13;;;;;;;0.28;100.00;95259.09;5063446;28;20033;-52
2022/01/15 04:00:00;;;;;;;11.02;5.47;;;;;;;0.18;100.00;95259.22;5065321;28;20402;-52
2022/01/15 04:02:28;;;;;;;7.68;4.18;;;;;;;0.14;100.00;95258.72;5065184;28;20050;-50
2022/01/15 04:04:55;;;;;;;14.35;5.88;;;;;;;0.10;100.00;95260.00;5065612;28;20040;-52
2022/01/15 04:07:22;;;;;;;13.15;4.93;;;;;;;0.09;100.00;95260.97;5065857;28;20036;-53
2022/01/15 04:09:48;;;;;;;12.30;5.72;;;;;;;0.10;100.00;95267.69;5069321;28;20040;-54
2022/01/15 04:12:15;;;;;;;20.83;6.38;;;;;;;0.04;100.00;95272.63;5069803;28;20063;-53
2022/01/15 04:14:42;;;;;;;14.82;5.53;;;;;;;0.02;100.00;95275.34;5067594;28;20063;-51
2022/01/15 04:17:09;;;;;;;13.80;7.00;;;;;;;0.01;100.00;95283.97;5064111;28;20482;-50
2022/01/15 04:19:36;;;;;;;13.02;5.40;;;;;;;-0.02;100.00;95284.28;5074848;28;20044;-50
2022/01/15 04:22:03;;;;;;;13.82;6.78;;;;;;;-0.10;100.00;95291.94;5070363;28;20549;-53
2022/01/15 04:24:30;;;;;;;14.68;6.85;;;;;;;-0.11;100.00;95295.44;5070256;28;20043;-51
2022/01/15 04:26:57;;;;;;;15.40;7.57;;;;;;;-0.12;100.00;95286.19;5073505;28;20044;-52
2022/01/15 04:29:24;;;;;;;19.88;8.38;;;;;;;-0.06;100.00;95293.22;5071436;28;20044;-52
2022/01/15 04:31:51;;;;;;;13.13;7.03;;;;;;;-0.10;100.00;95302.19;5066209;28;20036;-52
2022/01/15 04:34:26;;;;;;;20.15;5.43;;;;;;;-0.16;100.00;95293.34;5063508;28;20047;-53
2022/01/15 04:37:13;;;;;;;11.63;5.15;;;;;;;-0.13;100.00;95307.59;5063464;28;20045;-50
2022/01/15 04:39:42;;;;;;;12.20;6.50;;;;;;;-0.24;100.00;95286.41;5063949;28;20505;-51
2022/01/15 04:42:10;;;;;;;11.80;5.72;;;;;;;-0.21;100.00;95296.38;5064978;28;20421;-50
2022/01/15 04:44:37;;;;;;;8.40;5.10;;;;;;;-0.15;100.00;95300.06;5064890;28;20119;-51
2022/01/15 04:47:05;;;;;;;8.00;4.78;;;;;;;-0.15;100.00;95294.94;5063739;28;20056;-52
2022/01/15 04:49:32;;;;;;;7.55;4.35;;;;;;;-0.05;100.00;95305.09;5064004;28;20441;-54
2022/01/15 04:52:00;;;;;;;15.63;5.65;;;;;;;-0.05;100.00;95305.09;5064331;28;20058;-53
2022/01/15 04:54:27;;;;;;;12.98;5.60;;;;;;;-0.05;100.00;95299.97;5065018;28;20051;-54
2022/01/15 04:56:54;;;;;;;19.60;7.88;;;;;;;-0.08;100.00;95301.06;5068038;28;20044;-54
2022/01/15 04:59:23;;;;;;;12.88;5.30;;;;;;;-0.06;100.00;95301.72;5061551;28;20032;-53
2022/01/15 05:01:50;;;;;;;11.13;5.65;;;;;;;-0.05;100.00;95305.09;5070030;28;20042;-52
2022/01/15 05:04:17;;;;;;;14.35;5.90;;;;;;;-0.02;100.00;95304.75;5068104;28;20071;-51
2022/01/15 05:06:44;;;;;;;10.05;4.78;;;;;;;-0.05;100.00;95313.56;5063679;28;20044;-50
2022/01/15 05:09:12;;;;;;;10.32;5.88;;;;;;;-0.10;100.00;95299.63;5067395;28;20107;-50
2022/01/15 05:11:47;;;;;;;14.52;7.15;;;;;;;0.01;100.00;95317.28;5063332;28;20051;-50
2022/01/15 05:14:16;;;;;;;16.98;7.28;;;;;;;0.09;100.00;95322.44;5062546;28;20777;-54
2022/01/15 05:16:44;;;;;;;12.57;5.80;;;;;;;0.11;100.00;95325.66;5063369;28;20036;-51
2022/01/15 05:19:11;;;;;;;10.57;4.85;;;;;;;0.15;100.00;95334.63;5063176;28;20045;-50
2022/01/15 05:21:38;;;;;;;20.17;8.30;;;;;;;0.16;100.00;95338.81;5066833;28;20055;-50
2022/01/15 05:24:06;;;;;;;15.00;6.55;;;;;;;0.13;100.00;95328.84;5062986;28;20506;-50
2022/01/15 05:26:33;;;;;;;23.52;8.38;;;;;;;0.21;100.00;95345.22;5069063;28;20403;-52
2022/01/15 05:29:01;;;;;;;17.02;7.43;;;;;;;0.22;100.00;95334.00;5063139;28;20032;-54
2022/01/15 05:31:28;;;;;;;13.35;6.82;;;;;;;0.25;100.00;95349.06;5063550;28;20051;-50
2022/01/15 05:33:55;;;;;;;21.33;7.35;;;;;;;0.16;100.00;95349.06;5062531;28;20044;-52
2022/01/15 05:36:23;;;;;;;13.85;6.65;;;;;;;0.15;100.00;95352.56;5064397;28;20044;-54
2022/01/15 05:38:50;;;;;;;9.38;5.60;;;;;;;0.11;100.00;95351.25;5062998;28;20052;-53
2022/01/15 05:41:16;;;;;;;16.58;6.78;;;;;;;0.09;100.00;95353.19;5066825;28;20709;-53
2022/01/15 05:43:43;;;;;;;10.82;4.28;;;;;;;0.10;100.00;95348.84;5058541;28;20048;-51
2022/01/15 05:46:10;;;;;;;15.15;6.57;;;;;;;0.15;100.00;95357.69;5057921;28;22109;-51
2022/01/15 05:48:37;;;;;;;18.08;8.02;;;;;;;0.12;100.00;95363.09;5062001;28;20036;-50
2022/01/15 05:51:04;;;;;;;17.70;7.65;;;;;;;0.17;100.00;95365.22;5062270;28;20457;-51
2022/01/15 05:53:31;;;;;;;16.13;7.50;;;;;;;0.21;100.00;95363.94;5063192;28;20047;-52
2022/01/15 05:55:58;;;;;;;27.58;9.93;;;;;;;0.30;100.00;95364.78;5063167;28;20143;-50
2022/01/15 05:58:25;;;;;;;15.95;8.88;;;;;;;0.32;100.00;95373.13;5061212;28;20044;-54
2022/01/15 06:00:51;;;;;;;22.65;10.48;;;;;;;0.35;100.00;95372.81;5070575;28;20043;-55
2022/01/15 06:03:18;;;;;;;15.88;8.27;;;;;;;0.34;100.00;95381.44;5069714;28;20052;-50
2022/01/15 06:05:45;;;;;;;17.55;7.82;;;;;;;0.36;100.00;95387.22;5063459;28;20052;-50
2022/01/15 06:08:12;;;;;;;31.80;11.30;;;;;;;0.38;100.00;95390.47;5061978;28;20043;-54
2022/01/15 06:10:40;;;;;;;19.33;7.30;;;;;;;0.43;100.00;95385.66;5060268;28;20045;-54
2022/01/15 06:13:07;;;;;;;17.30;8.90;;;;;;;0.44;100.00;95379.59;5061337;28;20106;-53
2022/01/15 06:15:34;;;;;;;15.45;6.43;;;;;;;0.48;100.00;95393.69;5062600;28;20045;-51
2022/01/15 06:18:01;;;;;;;20.50;8.48;;;;;;;0.51;100.00;95402.84;5065807;28;20040;-51
2022/01/15 06:20:28;;;;;;;16.50;8.35;;;;;;;0.54;100.00;95408.47;5066615;28;20521;-50
2022/01/15 06:22:55;;;;;;;18.80;9.60;;;;;;;0.53;100.00;95408.63;5062609;28;20445;-51
2022/01/15 06:25:22;;;;;;;22.05;8.88;;;;;;;0.61;100.00;95413.75;5063999;28;20044;-52
2022/01/15 06:27:49;;;;;;;19.38;9.63;;;;;;;0.63;100.00;95411.03;5071482;28;20044;-51
2022/01/15 06:30:16;;;;;;;14.85;9.05;;;;;;;0.68;100.00;95419.06;5065694;28;20133;-53
2022/01/15 06:32:43;;;;;;;16.05;8.85;;;;;;;0.70;100.00;95424.84;5065428;28;20056;-53
2022/01/15 06:35:17;;;;;;;21.50;11.60;;;;;;;0.76;100.00;95426.81;5068513;28;20055;-51
2022/01/15 06:37:47;;;;;;;;;;;;;;;0.78;100.00;95430.03;5067318;28;20161;-53
2022/01/15 06:40:16;;;;;;;25.83;10.32;;;;;;;0.77;100.00;95428.41;5064450;28;19928;-51
2022/01/15 06:42:44;;;;;;;23.73;9.65;;;;;;;0.81;100.00;95429.72;5067979;28;20048;-52
2022/01/15 06:45:11;;;;;;;20.05;8.27;;;;;;;0.86;100.00;95430.03;5064870;28;20044;-53
2022/01/15 06:47:38;;;;;;;13.82;7.32;;;;;;;0.89;100.00;95429.72;5066272;28;20052;-55
2022/01/15 06:50:06;;;;;;;14.50;7.18;;;;;;;0.85;100.00;95431.00;5069961;28;20473;-51
2022/01/15 06:52:34;;;;;;;19.38;8.23;;;;;;;0.87;100.00;95423.94;5065413;28;20460;-55
2022/01/15 06:55:03;;;;;;;13.95;7.80;;;;;;;0.90;100.00;95428.78;5065606;28;20036;-50
2022/01/15 06:57:30;;;;;;;19.23;8.32;;;;;;;0.95;100.00;95436.81;5066348;28;20041;-53
2022/01/15 06:59:57;;;;;;;20.23;10.45;;;;;;;0.99;100.00;95427.03;5069034;28;20497;-55
2022/01/15 07:02:24;;;;;;;23.90;10.70;;;;;;;1.03;100.00;95427.53;5067479;28;20471;-54
2022/01/15 07:04:51;;;;;;;14.10;9.20;;;;;;;1.04;100.00;95418.88;5068829;28;20556;-51
2022/01/15 07:07:18;;;;;;;27.10;10.85;;;;;;;1.05;100.00;95426.41;5066112;28;20122;-53
2022/01/15 07:09:45;;;;;;;19.17;8.27;;;;;;;1.03;100.00;95427.53;5066270;28;20044;-55
2022/01/15 07:12:12;;;;;;;28.27;12.00;;;;;;;1.04;100.00;95441.94;5065810;28;20044;-51
2022/01/15 07:14:39;;;;;;;22.25;9.85;;;;;;;1.06;100.00;95447.72;5073143;28;20044;-52
2022/01/15 07:17:06;;;;;;;20.33;8.82;;;;;;;1.05;100.00;95453.84;5072789;28;20062;-54
2022/01/15 07:19:34;;;;;;;21.10;9.95;;;;;;;1.09;100.00;95461.03;5068220;28;20041;-55
2022/01/15 07:22:00;;;;;;;16.20;8.32;;;;;;;1.12;100.00;95462.50;5066413;28;20119;-54
2022/01/15 07:24:27;;;;;;;21.98;8.98;;;;;;;1.17;100.00;95465.41;5068377;28;20390;-52
2022/01/15 07:26:54;;;;;;;13.93;7.30;;;;;;;1.21;100.00;95466.69;5066432;28;20045;-52
2022/01/15 07:29:23;;;;;;;16.85;10.02;;;;;;;1.28;100.00;95467.69;5067706;28;20055;-54
2022/01/15 07:31:52;;;;;;;18.10;9.65;;;;;;;1.40;100.00;95464.81;5065544;28;20044;-55
2022/01/15 07:34:20;;;;;;;17.98;9.77;;;;;;;1.48;100.00;95475.09;5069066;28;20037;-52
2022/01/15 07:36:53;;;;;;;16.05;7.80;;;;;;;1.55;100.00;95473.50;5067759;28;20068;-55
2022/01/15 07:39:20;;;;;;;17.30;9.70;;;;;;;1.66;100.00;95480.88;5067529;28;20391;-51
2022/01/15 07:41:47;;;;;;;20.88;9.38;;;;;;;1.86;100.00;95480.56;5065373;28;20041;-51
2022/01/15 07:44:14;;;;;;;15.38;7.28;;;;;;;2.02;99.31;95485.72;5065540;28;20048;-52
2022/01/15 07:46:42;;;;;;;13.27;6.70;;;;;;;2.07;98.99;95478.31;5065595;28;20043;-54
2022/01/15 07:49:08;;;;;;;11.70;6.40;;;;;;;2.10;97.71;95493.41;5066087;28;20546;-55
2022/01/15 07:51:35;;;;;;;17.95;8.70;;;;;;;2.05;97.89;95490.53;5065425;28;20040;-54
2022/01/15 07:54:02;;;;;;;11.57;6.20;;;;;;;1.99;98.07;95480.09;5064756;28;20044;-53
2022/01/15 07:56:29;;;;;;;14.80;8.07;;;;;;;1.97;98.13;95498.22;5063609;28;20120;-53
2022/01/15 07:58:56;;;;;;;15.88;7.22;;;;;;;2.00;98.18;95497.91;5064040;28;20521;-50
2022/01/15 08:01:23;;;;;;;16.00;7.20;;;;;;;2.05;97.24;95505.97;5067188;28;20106;-52
2022/01/15 08:03:50;;;;;;;19.85;9.02;;;;;;;2.08;97.39;95505.63;5064309;28;20040;-53
2022/01/15 08:06:17;;;;;;;13.20;7.63;;;;;;;2.07;97.13;95504.03;5064275;28;20049;-51
2022/01/15 08:08:44;;;;;;;17.75;9.75;;;;;;;2.18;97.09;95515.75;5064456;28;20394;-54
2022/01/15 08:11:11;;;;;;;17.77;10.23;;;;;;;2.19;96.94;95506.25;5064617;28;20041;-55
2022/01/15 08:13:38;;;;;;;20.85;9.30;;;;;;;2.33;96.28;95521.03;5063425;28;20085;-54
2022/01/15 08:16:05;;;;;;;15.60;9.43;;;;;;;2.40;96.17;95534.03;5064291;28;20044;-53
2022/01/15 08:18:32;;;;;;;19.98;8.35;;;;;;;2.44;95.82;95536.09;5063129;28;20037;-54
2022/01/15 08:20:59;;;;;;;18.00;8.50;;;;;;;2.45;95.30;95547.22;5065167;28;20453;-56
2022/01/15 08:23:26;;;;;;;16.73;8.52;;;;;;;2.48;95.42;95550.28;5065008;28;20040;-51
2022/01/15 08:25:53;;;;;;;14.98;8.95;;;;;;;2.51;94.76;95550.91;5063734;28;20048;-56
2022/01/15 08:28:20;;;;;;;23.00;10.40;;;;;;;2.53;94.25;95546.41;5070906;28;20056;-51
2022/01/15 08:30:47;;;;;;;13.63;7.43;;;;;;;2.55;94.18;95549.59;5064997;28;20138;-54
2022/01/15 08:33:14;;;;;;;21.13;10.73;;;;;;;2.46;93.85;95547.03;5063175;28;20502;-55
2022/01/15 08:35:40;;;;;;;17.83;7.57;;;;;;;2.59;93.85;95553.44;5064996;28;20036;-51
2022/01/15 08:38:08;;;;;;;14.35;7.60;;;;;;;2.68;93.90;95557.59;5062616;28;20036;-51
2022/01/15 08:40:35;;;;;;;15.73;8.45;;;;;;;2.79;93.19;95570.16;5065784;28;20410;-53
2022/01/15 08:43:03;;;;;;;18.42;8.77;;;;;;;2.88;91.89;95568.34;5065230;28;20040;-54
2022/01/15 08:45:30;;;;;;;12.20;8.07;;;;;;;2.98;92.09;95568.16;5063169;28;20045;-53
2022/01/15 08:47:57;;;;;;;16.13;8.70;;;;;;;3.05;90.84;95569.13;5062672;28;20553;-53
2022/01/15 08:50:24;;;;;;;18.45;8.48;;;;;;;3.14;90.65;95567.31;5060873;28;20127;-56
2022/01/15 08:52:51;;;;;;;14.93;7.95;;;;;;;3.12;90.46;95575.19;5071271;28;20445;-54
2022/01/15 08:55:20;;;;;;;62.33;24.05;;;;;;;3.14;90.75;95578.41;5066820;28;20052;-54
2022/01/15 08:57:47;;;;;;;44.25;22.80;;;;;;;3.18;90.25;95584.03;5063188;28;22358;-51
2022/01/15 09:00:18;;;;;;;24.23;13.52;;;;;;;3.21;89.86;95587.06;5065442;28;20037;-51
2022/01/15 09:02:45;;;;;;;23.95;9.50;;;;;;;3.30;90.06;95579.34;5064668;28;21174;-51
2022/01/15 09:05:13;;;;;;;26.02;12.13;;;;;;;3.46;90.24;95574.13;5063260;28;20132;-52
2022/01/15 09:07:40;;;;;;;32.38;15.20;;;;;;;3.74;88.81;95578.78;5061631;28;20048;-51
2022/01/15 09:10:08;;;;;;;25.35;11.50;;;;;;;3.83;87.21;95577.78;5061862;28;20060;-50
2022/01/15 09:12:39;;;;;;;23.95;11.82;;;;;;;4.00;86.45;95579.28;5063002;28;20433;-51
2022/01/15 09:15:26;;;;;;;10.27;5.22;;;;;;;4.09;86.19;95579.22;5060253;28;20048;-53
2022/01/15 09:17:53;;;;;;;11.63;6.55;;;;;;;4.17;85.41;95584.31;5063893;28;20036;-52
2022/01/15 09:20:20;;;;;;;26.25;9.45;;;;;;;4.24;85.62;95579.28;5063075;28;20420;-53
2022/01/15 09:22:48;;;;;;;21.08;8.63;;;;;;;4.38;85.16;95584.47;5063447;28;20115;-53
2022/01/15 09:25:15;;;;;;;11.40;5.70;;;;;;;4.47;84.37;95574.13;5063289;28;20044;-53
2022/01/15 09:30:28;;;;;;;26.25;13.25;;;;;;;4.73;83.06;95589.97;5054948;28;20395;-54
2022/01/15 09:32:56;;;;;;;22.42;11.65;;;;;;;4.64;82.23;95575.56;5065907;28;20079;-51
2022/01/15 09:35:25;;;;;;;18.65;9.40;;;;;;;4.47;80.31;95589.59;5064222;28;20526;-54
2022/01/15 09:37:53;;;;;;;19.70;8.75;;;;;;;4.20;81.72;95577.03;5065539;28;20037;-55
2022/01/15 09:40:23;;;;;;;19.38;10.00;;;;;;;4.05;82.35;95576.19;5064938;28;20047;-55
2022/01/15 09:42:51;;;;;;;16.98;7.60;;;;;;;3.96;82.39;95577.19;5059452;28;20056;-55
2022/01/15 09:45:20;;;;;;;18.30;8.60;;;;;;;3.96;83.05;95572.06;5061216;28;20052;-53
2022/01/15 09:48:02;;;;;;;42.20;9.30;;;;;;;4.02;82.11;95576.53;5062862;28;20041;-53
2022/01/15 09:50:32;;;;;;;19.23;8.88;;;;;;;4.06;82.69;95571.84;5074397;28;20036;-50
2022/01/15 09:52:59;;;;;;;20.58;9.93;;;;;;;4.12;82.08;95566.00;5063441;28;20044;-52
2022/01/15 09:55:26;;;;;;;17.25;9.27;;;;;;;4.32;81.76;95567.13;5069753;28;20056;-54
2022/01/15 09:57:54;;;;;;;20.27;9.85;;;;;;;4.47;80.62;95569.75;5067131;28;20051;-54
2022/01/15 10:00:22;;;;;;;18.30;7.88;;;;;;;4.56;80.86;95573.06;5063388;28;21547;-51
2022/01/15 10:02:51;;;;;;;16.67;7.90;;;;;;;4.58;80.02;95565.94;5064394;28;20481;-53
2022/01/15 10:05:19;;;;;;;17.25;8.68;;;;;;;4.62;79.09;95576.72;5064418;28;20060;-51
2022/01/15 10:08:09;;;;;;;17.30;9.20;;;;;;;4.65;78.08;95572.00;5064470;28;20577;-54
2022/01/15 10:10:38;;;;;;;18.75;7.80;;;;;;;4.70;78.97;95569.72;5064313;28;20045;-51
2022/01/15 10:13:15;;;;;;;16.05;8.30;;;;;;;4.77;79.35;95575.78;5063536;28;20047;-51
2022/01/15 10:15:45;;;;;;;22.13;9.85;;;;;;;4.79;77.74;95566.06;5064546;28;20045;-50
2022/01/15 10:18:24;;;;;;;15.32;8.85;;;;;;;4.88;77.31;95571.13;5063273;28;20049;-52
2022/01/15 10:20:53;;;;;;;14.07;7.93;;;;;;;4.77;75.95;95565.44;5076610;28;20513;-53
2022/01/15 10:23:23;;;;;;;13.95;6.72;;;;;;;4.70;75.83;95566.31;5074844;28;20553;-50
2022/01/15 10:26:17;;;;;;;15.48;7.00;;;;;;;4.66;75.41;95563.28;5066221;28;20047;-50
2022/01/15 10:29:06;;;;;;;21.48;9.60;;;;;;;4.62;75.69;95572.34;5062534;28;20036;-52
2022/01/15 10:31:39;;;;;;;25.45;9.52;;;;;;;4.66;76.29;95565.84;5063323;28;20774;-51
2022/01/15 10:34:28;;;;;;;16.83;8.25;;;;;;;4.62;75.60;95567.19;5070356;28;20551;-51
2022/01/15 10:37:12;;;;;;;17.75;8.68;;;;;;;4.62;75.95;95571.56;5062750;28;22551;-54
2022/01/15 10:39:52;;;;;;;17.95;9.80;;;;;;;4.57;76.49;95572.06;5067660;28;20048;-50
2022/01/15 10:42:23;;;;;;;22.85;8.85;;;;;;;4.73;76.18;95563.38;5083874;28;20051;-52
2022/01/15 10:44:56;;;;;;;14.48;6.93;;;;;;;4.83;76.08;95560.56;5084175;28;20036;-52
2022/01/15 10:47:27;;;;;;;11.02;6.68;;;;;;;4.89;75.79;95577.91;5083907;28;20036;-50
2022/01/15 10:50:03;;;;;;;17.52;8.88;;;;;;;4.87;75.44;95564.38;5083415;28;20046;-53
2022/01/15 10:52:30;;;;;;;19.27;7.53;;;;;;;4.82;75.32;95564.13;5081371;28;20044;-50
2022/01/15 10:55:01;;;;;;;18.15;10.40;;;;;;;4.90;74.90;95564.03;5069595;28;20501;-55
2022/01/15 10:57:39;;;;;;;13.85;5.90;;;;;;;4.95;75.15;95553.97;5075094;28;20044;-53
2022/01/15 11:00:13;;;;;;;9.95;6.70;;;;;;;4.89;74.15;95554.69;5066433;28;20043;-50
2022/01/15 11:02:41;;;;;;;;;;;;;;;5.03;73.57;95559.06;5073457;28;20043;-55
2022/01/15 11:05:27;;;;;;;12.52;6.93;;;;;;;5.11;73.50;95552.97;5072192;28;19920;-51
2022/01/15 11:08:06;;;;;;;20.90;8.57;;;;;;;5.06;74.32;95558.69;5065052;28;20044;-52
2022/01/15 11:10:59;;;;;;;14.38;7.53;;;;;;;5.05;73.48;95559.66;5065176;28;20051;-50
2022/01/15 11:13:39;;;;;;;15.23;6.75;;;;;;;4.92;72.58;95567.25;5071003;28;20521;-53
2022/01/15 11:16:10;;;;;;;24.27;9.13;;;;;;;4.99;74.08;95568.13;5073179;28;20047;-50
2022/01/15 11:18:40;;;;;;;13.23;6.55;;;;;;;5.25;72.93;95561.72;5073004;28;20045;-52
2022/01/15 11:21:10;;;;;;;13.18;7.03;;;;;;;5.48;72.09;95554.66;5073459;28;20028;-50
2022/01/15 11:23:39;;;;;;;13.90;6.93;;;;;;;5.62;71.11;95562.53;5072622;28;20403;-50
2022/01/15 11:26:28;;;;;;;10.77;5.63;;;;;;;5.52;70.73;95563.63;5075399;28;20711;-52
2022/01/15 11:28:57;;;;;;;14.52;7.50;;;;;;;5.68;71.53;95554.06;5074584;28;20052;-53
2022/01/15 11:31:31;;;;;;;10.95;6.40;;;;;;;5.85;69.59;95550.28;5086642;28;20036;-51
2022/01/15 11:34:00;;;;;;;15.07;5.97;;;;;;;5.69;68.14;95558.25;5067677;28;20045;-50
2022/01/15 11:36:33;;;;;;;13.23;6.35;;;;;;;5.61;69.19;95540.28;5070777;28;20962;-55
2022/01/15 11:39:03;;;;;;;11.50;5.95;;;;;;;5.70;69.40;95544.34;5071359;28;20041;-50
2022/01/15 11:41:30;;;;;;;13.20;7.53;;;;;;;5.78;69.83;95552.00;5067093;28;20072;-51
2022/01/15 11:44:22;;;;;;;13.80;8.02;;;;;;;5.67;68.94;95531.78;5068336;28;20618;-55
2022/01/15 11:46:53;;;;;;;10.93;5.30;;;;;;;5.79;69.15;95543.25;5056073;28;20055;-52
2022/01/15 11:49:44;;;;;;;17.27;8.65;;;;;;;5.83;68.15;95544.47;5066085;28;20051;-52
2022/01/15 11:52:12;;;;;;;19.75;7.82;;;;;;;6.01;67.82;95538.13;5065806;28;20045;-51
2022/01/15 11:55:00;;;;;;;11.57;6.03;;;;;;;5.99;68.36;95542.69;5067007;28;20059;-51
2022/01/15 11:57:30;;;;;;;17.95;7.65;;;;;;;6.16;69.10;95540.63;5072728;28;20040;-53
2022/01/15 11:59:59;;;;;;;14.60;7.45;;;;;;;6.02;67.59;95547.50;5074193;28;20040;-50